sensor_id;sensor_type;location;lat;lon;timestamp;pressure;altitude;pressure_sealevel;temperature;humidity
59337;BME280;45115;52.002;4.686;2023-04-12T00:02:10;100501.25;;;8.53;93.77
59337;BME280;45115;52.002;4.686;2023-04-12T00:04:38;100491.31;;;8.52;93.49
59337;BME280;45115;52.002;4.686;2023-04-12T00:07:05;100476.09;;;8.50;93.73
59337;BME280;45115;52.002;4.686;2023-04-12T00:09:34;100459.00;;;8.48;93.35
59337;BME280;45115;52.002;4.686;2023-04-12T00:12:02;100452.38;;;8.50;93.41
59337;BME280;45115;52.002;4.686;2023-04-12T00:14:31;100450.66;;;8.49;93.31
59337;BME280;45115;52.002;4.686;2023-04-12T00:16:58;100448.06;;;8.48;93.58
59337;BME280;45115;52.002;4.686;2023-04-12T00:19:24;100437.31;;;8.46;94.05
59337;BME280;45115;52.002;4.686;2023-04-12T00:21:51;100430.09;;;8.45;93.76
59337;BME280;45115;52.002;4.686;2023-04-12T00:24:18;100428.09;;;8.47;93.88
59337;BME280;45115;52.002;4.686;2023-04-12T00:26:45;100421.91;;;8.45;93.63
59337;BME280;45115;52.002;4.686;2023-04-12T00:29:11;100410.00;;;8.46;94.07
59337;BME280;45115;52.002;4.686;2023-04-12T00:31:41;100397.66;;;8.42;94.35
59337;BME280;45115;52.002;4.686;2023-04-12T00:34:07;100388.44;;;8.43;93.84
59337;BME280;45115;52.002;4.686;2023-04-12T00:36:34;100384.13;;;8.41;94.06
59337;BME280;45115;52.002;4.686;2023-04-12T00:39:01;100355.84;;;8.42;93.84
59337;BME280;45115;52.002;4.686;2023-04-12T00:41:28;100344.66;;;8.45;93.92
59337;BME280;45115;52.002;4.686;2023-04-12T00:43:55;100352.38;;;8.40;94.35
59337;BME280;45115;52.002;4.686;2023-04-12T00:46:21;100353.97;;;8.42;93.92
59337;BME280;45115;52.002;4.686;2023-04-12T00:48:51;100346.81;;;8.41;94.09
59337;BME280;45115;52.002;4.686;2023-04-12T00:51:18;100343.06;;;8.42;93.74
59337;BME280;45115;52.002;4.686;2023-04-12T00:53:47;100323.81;;;8.44;93.88
59337;BME280;45115;52.002;4.686;2023-04-12T00:56:14;100318.66;;;8.41;93.50
59337;BME280;45115;52.002;4.686;2023-04-12T00:58:41;100299.69;;;8.39;93.34
59337;BME280;45115;52.002;4.686;2023-04-12T01:01:08;100296.25;;;8.37;93.51
59337;BME280;45115;52.002;4.686;2023-04-12T01:03:34;100307.00;;;8.39;93.67
59337;BME280;45115;52.002;4.686;2023-04-12T01:06:12;100298.97;;;8.37;93.66
59337;BME280;45115;52.002;4.686;2023-04-12T01:08:49;100277.28;;;8.36;93.60
59337;BME280;45115;52.002;4.686;2023-04-12T01:11:25;100269.38;;;8.33;94.23
59337;BME280;45115;52.002;4.686;2023-04-12T01:13:58;100256.19;;;8.38;93.68
59337;BME280;45115;52.002;4.686;2023-04-12T01:16:32;100264.63;;;8.35;93.75
59337;BME280;45115;52.002;4.686;2023-04-12T01:19:08;100259.31;;;8.33;93.15
59337;BME280;45115;52.002;4.686;2023-04-12T01:21:44;100253.00;;;8.33;93.51
59337;BME280;45115;52.002;4.686;2023-04-12T01:24:23;100248.56;;;8.32;93.87
59337;BME280;45115;52.002;4.686;2023-04-12T01:26:54;100233.78;;;8.34;93.00
59337;BME280;45115;52.002;4.686;2023-04-12T01:29:27;100222.28;;;8.31;93.21
59337;BME280;45115;52.002;4.686;2023-04-12T01:31:57;100224.88;;;8.32;92.73
59337;BME280;45115;52.002;4.686;2023-04-12T01:34:27;100217.09;;;8.28;93.50
59337;BME280;45115;52.002;4.686;2023-04-12T01:36:54;100202.75;;;8.26;93.79
59337;BME280;45115;52.002;4.686;2023-04-12T01:39:22;100199.91;;;8.27;93.34
59337;BME280;45115;52.002;4.686;2023-04-12T01:41:49;100187.41;;;8.25;93.81
59337;BME280;45115;52.002;4.686;2023-04-12T01:44:16;100170.00;;;8.26;93.71
59337;BME280;45115;52.002;4.686;2023-04-12T01:46:46;100182.34;;;8.30;93.25
59337;BME280;45115;52.002;4.686;2023-04-12T01:49:14;100171.59;;;8.28;93.52
59337;BME280;45115;52.002;4.686;2023-04-12T01:51:49;100159.97;;;8.26;93.55
59337;BME280;45115;52.002;4.686;2023-04-12T01:54:20;100150.78;;;8.27;93.49
59337;BME280;45115;52.002;4.686;2023-04-12T01:56:51;100143.59;;;8.26;93.76
59337;BME280;45115;52.002;4.686;2023-04-12T01:59:22;100130.53;;;8.20;93.88
59337;BME280;45115;52.002;4.686;2023-04-12T02:01:53;100136.69;;;8.22;94.07
59337;BME280;45115;52.002;4.686;2023-04-12T02:04:20;100120.31;;;8.22;94.00
59337;BME280;45115;52.002;4.686;2023-04-12T02:06:47;100118.75;;;8.20;93.84
59337;BME280;45115;52.002;4.686;2023-04-12T02:09:14;100116.88;;;8.20;94.13
59337;BME280;45115;52.002;4.686;2023-04-12T02:11:45;100107.13;;;8.18;94.56
59337;BME280;45115;52.002;4.686;2023-04-12T02:14:12;100097.22;;;8.26;94.10
59337;BME280;45115;52.002;4.686;2023-04-12T02:16:38;100080.41;;;8.21;94.24
59337;BME280;45115;52.002;4.686;2023-04-12T02:19:07;100084.97;;;8.21;94.54
59337;BME280;45115;52.002;4.686;2023-04-12T02:21:38;100081.88;;;8.25;94.58
59337;BME280;45115;52.002;4.686;2023-04-12T02:24:05;100081.72;;;8.27;94.50
59337;BME280;45115;52.002;4.686;2023-04-12T02:26:32;100073.84;;;8.24;94.88
59337;BME280;45115;52.002;4.686;2023-04-12T02:28:59;100067.19;;;8.26;95.11
59337;BME280;45115;52.002;4.686;2023-04-12T02:31:26;100069.22;;;8.24;95.42
59337;BME280;45115;52.002;4.686;2023-04-12T02:33:55;100065.19;;;8.28;95.12
59337;BME280;45115;52.002;4.686;2023-04-12T02:36:23;100055.16;;;8.29;94.81
59337;BME280;45115;52.002;4.686;2023-04-12T02:38:50;100038.94;;;8.27;95.38
59337;BME280;45115;52.002;4.686;2023-04-12T02:41:18;100034.47;;;8.26;94.83
59337;BME280;45115;52.002;4.686;2023-04-12T02:43:46;100024.84;;;8.22;95.43
59337;BME280;45115;52.002;4.686;2023-04-12T02:46:15;100031.03;;;8.24;95.41
59337;BME280;45115;52.002;4.686;2023-04-12T02:48:48;100032.44;;;8.28;95.55
59337;BME280;45115;52.002;4.686;2023-04-12T02:51:15;100015.06;;;8.29;95.87
59337;BME280;45115;52.002;4.686;2023-04-12T02:53:47;100016.94;;;8.29;95.77
59337;BME280;45115;52.002;4.686;2023-04-12T02:56:17;100011.66;;;8.27;95.94
59337;BME280;45115;52.002;4.686;2023-04-12T02:58:49;100006.31;;;8.26;95.78
59337;BME280;45115;52.002;4.686;2023-04-12T03:01:29;99999.00;;;8.26;96.02
59337;BME280;45115;52.002;4.686;2023-04-12T03:04:15;99998.69;;;8.29;96.14
59337;BME280;45115;52.002;4.686;2023-04-12T03:06:47;99993.38;;;8.28;96.19
59337;BME280;45115;52.002;4.686;2023-04-12T03:09:25;99983.81;;;8.24;96.57
59337;BME280;45115;52.002;4.686;2023-04-12T03:11:53;99975.31;;;8.27;96.67
59337;BME280;45115;52.002;4.686;2023-04-12T03:14:21;99974.59;;;8.25;96.44
59337;BME280;45115;52.002;4.686;2023-04-12T03:16:48;99963.38;;;8.28;96.32
59337;BME280;45115;52.002;4.686;2023-04-12T03:19:17;99958.78;;;8.28;96.18
59337;BME280;45115;52.002;4.686;2023-04-12T03:21:50;99957.06;;;8.27;96.08
59337;BME280;45115;52.002;4.686;2023-04-12T03:24:17;99956.59;;;8.32;96.39
59337;BME280;45115;52.002;4.686;2023-04-12T03:26:45;99950.44;;;8.30;96.58
59337;BME280;45115;52.002;4.686;2023-04-12T03:29:18;99948.25;;;8.33;96.60
59337;BME280;45115;52.002;4.686;2023-04-12T03:31:47;99945.53;;;8.33;96.10
59337;BME280;45115;52.002;4.686;2023-04-12T03:34:14;99946.72;;;8.31;96.30
59337;BME280;45115;52.002;4.686;2023-04-12T03:36:44;99932.59;;;8.35;96.07
59337;BME280;45115;52.002;4.686;2023-04-12T03:39:19;99932.06;;;8.32;96.41
59337;BME280;45115;52.002;4.686;2023-04-12T03:41:50;99927.75;;;8.29;96.62
59337;BME280;45115;52.002;4.686;2023-04-12T03:44:20;99924.47;;;8.26;96.46
59337;BME280;45115;52.002;4.686;2023-04-12T03:46:51;99927.84;;;8.37;95.71
59337;BME280;45115;52.002;4.686;2023-04-12T03:49:18;99923.56;;;8.35;95.99
59337;BME280;45115;52.002;4.686;2023-04-12T03:51:46;99908.22;;;8.34;96.27
59337;BME280;45115;52.002;4.686;2023-04-12T03:54:15;99891.13;;;8.32;96.05
59337;BME280;45115;52.002;4.686;2023-04-12T03:57:12;99891.34;;;8.38;96.01
59337;BME280;45115;52.002;4.686;2023-04-12T03:59:43;99884.66;;;8.33;96.14
59337;BME280;45115;52.002;4.686;2023-04-12T04:02:26;99875.91;;;8.29;96.73
59337;BME280;45115;52.002;4.686;2023-04-12T04:04:55;99882.19;;;8.39;96.04
59337;BME280;45115;52.002;4.686;2023-04-12T04:07:25;99870.44;;;8.29;96.34
59337;BME280;45115;52.002;4.686;2023-04-12T04:09:54;99869.16;;;8.33;96.15
59337;BME280;45115;52.002;4.686;2023-04-12T04:12:23;99839.78;;;8.18;96.67
59337;BME280;45115;52.002;4.686;2023-04-12T04:14:53;99874.28;;;8.36;96.45
59337;BME280;45115;52.002;4.686;2023-04-12T04:17:30;99885.06;;;8.38;96.76
59337;BME280;45115;52.002;4.686;2023-04-12T04:19:56;99880.91;;;8.34;96.71
59337;BME280;45115;52.002;4.686;2023-04-12T04:22:24;99863.69;;;8.33;96.43
59337;BME280;45115;52.002;4.686;2023-04-12T04:24:52;99865.25;;;8.36;96.29
59337;BME280;45115;52.002;4.686;2023-04-12T04:27:20;99877.44;;;8.41;96.46
59337;BME280;45115;52.002;4.686;2023-04-12T04:29:51;99876.41;;;8.42;96.63
59337;BME280;45115;52.002;4.686;2023-04-12T04:32:18;99877.28;;;8.43;97.03
59337;BME280;45115;52.002;4.686;2023-04-12T04:34:44;99884.59;;;8.42;96.96
59337;BME280;45115;52.002;4.686;2023-04-12T04:37:15;99871.81;;;8.43;96.88
59337;BME280;45115;52.002;4.686;2023-04-12T04:39:44;99881.53;;;8.45;96.92
59337;BME280;45115;52.002;4.686;2023-04-12T04:42:11;99878.66;;;8.47;96.65
59337;BME280;45115;52.002;4.686;2023-04-12T04:44:39;99887.38;;;8.50;96.92
59337;BME280;45115;52.002;4.686;2023-04-12T04:47:09;99878.38;;;8.50;96.78
59337;BME280;45115;52.002;4.686;2023-04-12T04:49:36;99890.97;;;8.51;97.19
59337;BME280;45115;52.002;4.686;2023-04-12T04:52:12;99889.34;;;8.58;97.02
59337;BME280;45115;52.002;4.686;2023-04-12T04:54:40;99884.38;;;8.53;96.91
59337;BME280;45115;52.002;4.686;2023-04-12T04:57:07;99881.25;;;8.48;97.67
59337;BME280;45115;52.002;4.686;2023-04-12T04:59:36;99896.69;;;8.57;97.39
59337;BME280;45115;52.002;4.686;2023-04-12T05:02:15;99891.09;;;8.59;97.29
59337;BME280;45115;52.002;4.686;2023-04-12T05:04:43;99879.91;;;8.52;97.08
59337;BME280;45115;52.002;4.686;2023-04-12T05:07:12;99886.63;;;8.58;97.25
59337;BME280;45115;52.002;4.686;2023-04-12T05:09:42;99885.84;;;8.65;96.97
59337;BME280;45115;52.002;4.686;2023-04-12T05:12:09;99879.69;;;8.63;97.02
59337;BME280;45115;52.002;4.686;2023-04-12T05:14:36;99887.88;;;8.63;97.28
59337;BME280;45115;52.002;4.686;2023-04-12T05:17:04;99869.16;;;8.68;96.68
59337;BME280;45115;52.002;4.686;2023-04-12T05:19:32;99881.25;;;8.66;96.66
59337;BME280;45115;52.002;4.686;2023-04-12T05:21:59;99886.25;;;8.70;96.92
59337;BME280;45115;52.002;4.686;2023-04-12T05:24:26;99876.34;;;8.69;96.77
59337;BME280;45115;52.002;4.686;2023-04-12T05:26:55;99869.00;;;8.70;97.18
59337;BME280;45115;52.002;4.686;2023-04-12T05:29:21;99871.00;;;8.68;96.71
59337;BME280;45115;52.002;4.686;2023-04-12T05:31:48;99868.69;;;8.73;96.92
59337;BME280;45115;52.002;4.686;2023-04-12T05:34:18;99871.28;;;8.74;96.47
59337;BME280;45115;52.002;4.686;2023-04-12T05:36:56;99872.34;;;8.81;96.72
59337;BME280;45115;52.002;4.686;2023-04-12T05:39:25;99858.72;;;8.81;96.59
59337;BME280;45115;52.002;4.686;2023-04-12T05:41:51;99873.28;;;8.90;96.13
59337;BME280;45115;52.002;4.686;2023-04-12T05:44:18;99874.44;;;8.87;96.38
59337;BME280;45115;52.002;4.686;2023-04-12T05:46:45;99878.66;;;8.82;96.69
59337;BME280;45115;52.002;4.686;2023-04-12T05:49:12;99895.97;;;8.90;96.20
59337;BME280;45115;52.002;4.686;2023-04-12T05:51:39;99885.03;;;8.90;96.61
59337;BME280;45115;52.002;4.686;2023-04-12T05:54:07;99888.72;;;8.99;96.33
59337;BME280;45115;52.002;4.686;2023-04-12T05:56:35;99884.63;;;9.03;96.25
59337;BME280;45115;52.002;4.686;2023-04-12T05:59:02;99867.72;;;8.99;96.19
59337;BME280;45115;52.002;4.686;2023-04-12T06:01:29;99884.97;;;9.00;96.26
59337;BME280;45115;52.002;4.686;2023-04-12T06:03:59;99877.47;;;9.02;95.91
59337;BME280;45115;52.002;4.686;2023-04-12T06:06:27;99885.44;;;8.95;95.92
59337;BME280;45115;52.002;4.686;2023-04-12T06:08:54;99887.31;;;8.95;96.09
59337;BME280;45115;52.002;4.686;2023-04-12T06:11:23;99888.56;;;9.00;95.81
59337;BME280;45115;52.002;4.686;2023-04-12T06:13:51;99888.72;;;8.99;96.01
59337;BME280;45115;52.002;4.686;2023-04-12T06:16:17;99883.09;;;9.00;96.09
59337;BME280;45115;52.002;4.686;2023-04-12T06:18:44;99876.69;;;9.10;96.04
59337;BME280;45115;52.002;4.686;2023-04-12T06:21:11;99886.25;;;9.14;95.72
59337;BME280;45115;52.002;4.686;2023-04-12T06:23:40;99883.59;;;9.22;95.41
59337;BME280;45115;52.002;4.686;2023-04-12T06:26:07;99868.53;;;9.18;95.11
59337;BME280;45115;52.002;4.686;2023-04-12T06:28:35;99868.75;;;9.24;94.46
59337;BME280;45115;52.002;4.686;2023-04-12T06:31:01;99867.25;;;9.30;94.07
59337;BME280;45115;52.002;4.686;2023-04-12T06:33:32;99877.16;;;9.31;93.69
59337;BME280;45115;52.002;4.686;2023-04-12T06:36:01;99872.00;;;9.28;93.46
59337;BME280;45115;52.002;4.686;2023-04-12T06:38:28;99878.84;;;9.24;92.85
59337;BME280;45115;52.002;4.686;2023-04-12T06:40:55;99885.78;;;9.18;93.05
59337;BME280;45115;52.002;4.686;2023-04-12T06:43:21;99877.91;;;9.15;92.28
59337;BME280;45115;52.002;4.686;2023-04-12T06:45:49;99879.00;;;9.04;92.58
59337;BME280;45115;52.002;4.686;2023-04-12T06:48:16;99867.78;;;9.08;91.59
59337;BME280;45115;52.002;4.686;2023-04-12T06:50:43;99874.00;;;9.18;91.33
59337;BME280;45115;52.002;4.686;2023-04-12T06:53:10;99873.84;;;9.19;91.83
59337;BME280;45115;52.002;4.686;2023-04-12T06:55:37;99872.56;;;9.31;91.79
59337;BME280;45115;52.002;4.686;2023-04-12T06:58:04;99885.97;;;9.42;90.55
59337;BME280;45115;52.002;4.686;2023-04-12T07:00:31;99884.47;;;9.48;90.77
59337;BME280;45115;52.002;4.686;2023-04-12T07:02:59;99886.22;;;9.57;90.13
59337;BME280;45115;52.002;4.686;2023-04-12T07:05:25;99882.28;;;9.59;90.08
59337;BME280;45115;52.002;4.686;2023-04-12T07:07:52;99887.44;;;9.62;89.25
59337;BME280;45115;52.002;4.686;2023-04-12T07:10:18;99886.97;;;9.67;89.27
59337;BME280;45115;52.002;4.686;2023-04-12T07:12:45;99883.41;;;9.74;88.45
59337;BME280;45115;52.002;4.686;2023-04-12T07:15:12;99884.44;;;9.81;87.22
59337;BME280;45115;52.002;4.686;2023-04-12T07:17:38;99876.13;;;9.91;87.77
59337;BME280;45115;52.002;4.686;2023-04-12T07:20:07;99867.59;;;9.94;87.25
59337;BME280;45115;52.002;4.686;2023-04-12T07:22:34;99875.34;;;10.06;86.26
59337;BME280;45115;52.002;4.686;2023-04-12T07:25:00;99863.94;;;10.11;85.89
59337;BME280;45115;52.002;4.686;2023-04-12T07:27:27;99866.00;;;10.17;86.45
59337;BME280;45115;52.002;4.686;2023-04-12T07:29:53;99857.84;;;10.25;86.03
59337;BME280;45115;52.002;4.686;2023-04-12T07:32:22;99861.41;;;10.18;85.29
59337;BME280;45115;52.002;4.686;2023-04-12T07:34:48;99860.53;;;10.09;85.27
59337;BME280;45115;52.002;4.686;2023-04-12T07:37:16;99857.41;;;10.04;84.08
59337;BME280;45115;52.002;4.686;2023-04-12T07:39:43;99838.84;;;11.36;81.48
59337;BME280;45115;52.002;4.686;2023-04-12T07:42:10;99833.59;;;12.51;76.63
59337;BME280;45115;52.002;4.686;2023-04-12T07:44:36;99825.53;;;13.31;73.94
59337;BME280;45115;52.002;4.686;2023-04-12T07:47:03;99826.31;;;14.27;69.21
59337;BME280;45115;52.002;4.686;2023-04-12T07:49:29;99823.16;;;14.16;68.08
59337;BME280;45115;52.002;4.686;2023-04-12T07:51:56;99822.97;;;14.68;65.99
59337;BME280;45115;52.002;4.686;2023-04-12T07:54:26;99823.09;;;14.09;66.00
59337;BME280;45115;52.002;4.686;2023-04-12T07:56:56;99825.56;;;14.04;63.42
59337;BME280;45115;52.002;4.686;2023-04-12T07:59:23;99832.09;;;13.60;64.82
59337;BME280;45115;52.002;4.686;2023-04-12T08:01:50;99829.28;;;13.68;65.34
59337;BME280;45115;52.002;4.686;2023-04-12T08:04:16;99837.97;;;13.27;65.91
59337;BME280;45115;52.002;4.686;2023-04-12T08:06:43;99831.44;;;13.58;65.04
59337;BME280;45115;52.002;4.686;2023-04-12T08:09:10;99820.97;;;14.26;62.82
59337;BME280;45115;52.002;4.686;2023-04-12T08:11:38;99820.91;;;14.55;60.39
59337;BME280;45115;52.002;4.686;2023-04-12T08:14:04;99827.34;;;14.62;61.20
59337;BME280;45115;52.002;4.686;2023-04-12T08:16:31;99839.81;;;13.64;63.91
59337;BME280;45115;52.002;4.686;2023-04-12T08:18:58;99847.81;;;12.99;65.52
59337;BME280;45115;52.002;4.686;2023-04-12T08:21:24;99841.44;;;12.31;68.33
59337;BME280;45115;52.002;4.686;2023-04-12T08:23:51;99847.81;;;12.23;68.09
59337;BME280;45115;52.002;4.686;2023-04-12T08:26:18;99844.31;;;12.83;66.27
59337;BME280;45115;52.002;4.686;2023-04-12T08:28:46;99834.91;;;12.77;64.91
59337;BME280;45115;52.002;4.686;2023-04-12T08:31:13;99840.97;;;12.73;66.75
59337;BME280;45115;52.002;4.686;2023-04-12T08:33:40;99846.16;;;12.45;66.99
59337;BME280;45115;52.002;4.686;2023-04-12T08:36:08;99840.81;;;12.21;66.69
59337;BME280;45115;52.002;4.686;2023-04-12T08:38:36;99844.88;;;11.94;67.12
59337;BME280;45115;52.002;4.686;2023-04-12T08:41:03;99852.94;;;11.96;68.59
59337;BME280;45115;52.002;4.686;2023-04-12T08:43:32;99836.84;;;11.85;70.06
59337;BME280;45115;52.002;4.686;2023-04-12T08:46:00;99844.66;;;12.04;69.13
59337;BME280;45115;52.002;4.686;2023-04-12T08:48:27;99840.16;;;12.42;67.91
59337;BME280;45115;52.002;4.686;2023-04-12T08:50:55;99833.59;;;12.73;67.92
59337;BME280;45115;52.002;4.686;2023-04-12T08:53:22;99839.50;;;12.85;66.34
59337;BME280;45115;52.002;4.686;2023-04-12T08:55:49;99839.72;;;13.06;62.94
59337;BME280;45115;52.002;4.686;2023-04-12T08:58:15;99830.25;;;13.08;64.52
59337;BME280;45115;52.002;4.686;2023-04-12T09:00:43;99836.47;;;13.39;64.18
59337;BME280;45115;52.002;4.686;2023-04-12T09:03:11;99831.25;;;13.44;63.39
59337;BME280;45115;52.002;4.686;2023-04-12T09:05:38;99833.81;;;13.46;62.74
59337;BME280;45115;52.002;4.686;2023-04-12T09:08:04;99834.88;;;13.60;62.01
59337;BME280;45115;52.002;4.686;2023-04-12T09:10:32;99832.59;;;13.63;61.44
59337;BME280;45115;52.002;4.686;2023-04-12T09:12:59;99829.06;;;13.55;61.73
59337;BME280;45115;52.002;4.686;2023-04-12T09:15:26;99833.06;;;13.52;61.73
59337;BME280;45115;52.002;4.686;2023-04-12T09:18:07;99827.16;;;13.40;62.71
59337;BME280;45115;52.002;4.686;2023-04-12T09:20:36;99828.59;;;13.36;63.30
59337;BME280;45115;52.002;4.686;2023-04-12T09:23:16;99822.13;;;13.44;62.62
59337;BME280;45115;52.002;4.686;2023-04-12T09:25:44;99827.75;;;13.65;61.90
59337;BME280;45115;52.002;4.686;2023-04-12T09:28:21;99831.28;;;13.59;59.69
59337;BME280;45115;52.002;4.686;2023-04-12T09:30:48;99828.50;;;13.44;58.42
59337;BME280;45115;52.002;4.686;2023-04-12T09:33:18;99819.31;;;13.52;60.70
59337;BME280;45115;52.002;4.686;2023-04-12T09:35:46;99819.97;;;13.69;60.41
59337;BME280;45115;52.002;4.686;2023-04-12T09:38:13;99819.31;;;13.52;60.60
59337;BME280;45115;52.002;4.686;2023-04-12T09:40:40;99824.13;;;13.35;61.53
59337;BME280;45115;52.002;4.686;2023-04-12T09:43:07;99824.22;;;13.42;61.13
59337;BME280;45115;52.002;4.686;2023-04-12T09:45:36;99825.56;;;13.46;61.95
59337;BME280;45115;52.002;4.686;2023-04-12T09:48:05;99815.19;;;13.33;60.96
59337;BME280;45115;52.002;4.686;2023-04-12T09:50:34;99815.78;;;13.29;60.52
59337;BME280;45115;52.002;4.686;2023-04-12T09:53:02;99805.34;;;13.39;59.04
59337;BME280;45115;52.002;4.686;2023-04-12T09:55:31;99826.19;;;13.33;60.09
59337;BME280;45115;52.002;4.686;2023-04-12T09:58:01;99814.91;;;13.28;58.40
59337;BME280;45115;52.002;4.686;2023-04-12T10:00:30;99823.88;;;13.45;58.62
59337;BME280;45115;52.002;4.686;2023-04-12T10:02:59;99822.72;;;13.83;57.04
59337;BME280;45115;52.002;4.686;2023-04-12T10:05:25;99813.03;;;13.58;55.99
59337;BME280;45115;52.002;4.686;2023-04-12T10:07:52;99827.13;;;13.11;57.13
59337;BME280;45115;52.002;4.686;2023-04-12T10:10:21;99831.75;;;12.88;56.29
59337;BME280;45115;52.002;4.686;2023-04-12T10:12:48;99825.09;;;12.38;56.62
59337;BME280;45115;52.002;4.686;2023-04-12T10:15:15;99827.03;;;12.29;59.54
59337;BME280;45115;52.002;4.686;2023-04-12T10:17:43;99826.47;;;12.33;59.91
59337;BME280;45115;52.002;4.686;2023-04-12T10:20:11;99824.59;;;12.57;59.77
59337;BME280;45115;52.002;4.686;2023-04-12T10:22:39;99825.09;;;12.83;57.63
59337;BME280;45115;52.002;4.686;2023-04-12T10:25:10;99828.13;;;13.48;58.75
59337;BME280;45115;52.002;4.686;2023-04-12T10:27:40;99818.13;;;14.19;57.59
59337;BME280;45115;52.002;4.686;2023-04-12T10:30:24;99826.94;;;14.65;57.25
59337;BME280;45115;52.002;4.686;2023-04-12T10:33:11;99818.53;;;14.94;54.36
59337;BME280;45115;52.002;4.686;2023-04-12T10:35:55;99823.53;;;14.63;53.81
59337;BME280;45115;52.002;4.686;2023-04-12T10:38:23;99833.19;;;14.74;53.70
59337;BME280;45115;52.002;4.686;2023-04-12T10:41:10;99817.00;;;14.85;49.89
59337;BME280;45115;52.002;4.686;2023-04-12T10:43:39;99810.97;;;15.03;50.92
59337;BME280;45115;52.002;4.686;2023-04-12T10:46:05;99810.13;;;15.23;48.32
59337;BME280;45115;52.002;4.686;2023-04-12T10:48:33;99824.41;;;14.85;49.38
59337;BME280;45115;52.002;4.686;2023-04-12T10:51:14;99822.97;;;14.68;51.31
59337;BME280;45115;52.002;4.686;2023-04-12T10:53:42;99812.34;;;14.00;49.78
59337;BME280;45115;52.002;4.686;2023-04-12T10:56:35;99825.56;;;13.46;52.32
59337;BME280;45115;52.002;4.686;2023-04-12T10:59:05;99826.41;;;13.32;55.59
59337;BME280;45115;52.002;4.686;2023-04-12T11:02:08;99825.06;;;13.28;55.74
59337;BME280;45115;52.002;4.686;2023-04-12T11:04:36;99831.44;;;14.01;53.39
59337;BME280;45115;52.002;4.686;2023-04-12T11:07:08;99825.63;;;14.11;49.46
59337;BME280;45115;52.002;4.686;2023-04-12T11:09:59;99830.88;;;14.06;50.43
59337;BME280;45115;52.002;4.686;2023-04-12T11:12:37;99834.00;;;13.74;48.54
59337;BME280;45115;52.002;4.686;2023-04-12T11:15:10;99832.56;;;14.07;48.91
59337;BME280;45115;52.002;4.686;2023-04-12T11:17:51;99838.16;;;14.28;46.50
59337;BME280;45115;52.002;4.686;2023-04-12T11:20:21;99835.31;;;14.07;44.24
59337;BME280;45115;52.002;4.686;2023-04-12T11:22:49;99840.63;;;14.08;46.49
59337;BME280;45115;52.002;4.686;2023-04-12T11:25:16;99840.38;;;13.74;48.76
59337;BME280;45115;52.002;4.686;2023-04-12T11:27:48;99851.56;;;13.58;48.19
59337;BME280;45115;52.002;4.686;2023-04-12T11:30:17;99849.47;;;13.60;48.92
59337;BME280;45115;52.002;4.686;2023-04-12T11:32:44;99842.75;;;13.63;49.61
59337;BME280;45115;52.002;4.686;2023-04-12T11:35:13;99840.84;;;13.63;46.43
59337;BME280;45115;52.002;4.686;2023-04-12T11:37:40;99843.13;;;13.74;45.10
59337;BME280;45115;52.002;4.686;2023-04-12T11:40:09;99852.50;;;13.94;44.38
59337;BME280;45115;52.002;4.686;2023-04-12T11:42:38;99850.50;;;14.17;44.15
59337;BME280;45115;52.002;4.686;2023-04-12T11:45:06;99848.47;;;13.90;40.59
59337;BME280;45115;52.002;4.686;2023-04-12T11:47:34;99846.09;;;13.73;44.49
59337;BME280;45115;52.002;4.686;2023-04-12T11:50:01;99842.94;;;13.61;44.13
59337;BME280;45115;52.002;4.686;2023-04-12T11:52:29;99854.41;;;13.50;46.62
59337;BME280;45115;52.002;4.686;2023-04-12T11:54:59;99851.88;;;13.78;46.37
59337;BME280;45115;52.002;4.686;2023-04-12T11:57:26;99851.28;;;14.26;43.90
59337;BME280;45115;52.002;4.686;2023-04-12T11:59:55;99868.09;;;14.16;45.64
59337;BME280;45115;52.002;4.686;2023-04-12T12:02:22;99850.44;;;13.82;42.70
59337;BME280;45115;52.002;4.686;2023-04-12T12:04:51;99864.09;;;13.61;42.40
59337;BME280;45115;52.002;4.686;2023-04-12T12:07:20;99862.69;;;13.79;44.74
59337;BME280;45115;52.002;4.686;2023-04-12T12:09:48;99867.13;;;14.24;44.10
59337;BME280;45115;52.002;4.686;2023-04-12T12:12:15;99867.44;;;13.85;42.83
59337;BME280;45115;52.002;4.686;2023-04-12T12:14:43;99878.22;;;13.58;44.05
59337;BME280;45115;52.002;4.686;2023-04-12T12:17:12;99876.03;;;13.16;44.49
59337;BME280;45115;52.002;4.686;2023-04-12T12:19:40;99874.50;;;12.68;42.07
59337;BME280;45115;52.002;4.686;2023-04-12T12:22:13;99883.41;;;12.70;44.50
59337;BME280;45115;52.002;4.686;2023-04-12T12:24:44;99874.91;;;12.57;47.20
59337;BME280;45115;52.002;4.686;2023-04-12T12:27:12;99900.91;;;12.47;49.84
59337;BME280;45115;52.002;4.686;2023-04-12T12:29:39;99897.88;;;12.33;49.23
59337;BME280;45115;52.002;4.686;2023-04-12T12:32:09;99900.59;;;12.03;51.35
59337;BME280;45115;52.002;4.686;2023-04-12T12:34:37;99896.72;;;11.89;52.87
59337;BME280;45115;52.002;4.686;2023-04-12T12:37:07;99897.06;;;12.25;54.02
59337;BME280;45115;52.002;4.686;2023-04-12T12:39:36;99888.78;;;12.86;49.97
59337;BME280;45115;52.002;4.686;2023-04-12T12:42:03;99900.19;;;13.28;52.40
59337;BME280;45115;52.002;4.686;2023-04-12T12:44:31;99895.91;;;13.26;49.65
59337;BME280;45115;52.002;4.686;2023-04-12T12:46:58;99894.09;;;12.88;50.14
59337;BME280;45115;52.002;4.686;2023-04-12T12:49:25;99888.91;;;12.93;51.01
59337;BME280;45115;52.002;4.686;2023-04-12T12:51:52;99873.38;;;13.45;51.66
59337;BME280;45115;52.002;4.686;2023-04-12T12:54:18;99874.72;;;13.93;51.21
59337;BME280;45115;52.002;4.686;2023-04-12T12:56:46;99875.56;;;14.22;49.97
59337;BME280;45115;52.002;4.686;2023-04-12T12:59:13;99878.81;;;14.40;50.00
59337;BME280;45115;52.002;4.686;2023-04-12T13:01:39;99867.50;;;14.21;49.14
59337;BME280;45115;52.002;4.686;2023-04-12T13:04:06;99861.59;;;14.53;49.92
59337;BME280;45115;52.002;4.686;2023-04-12T13:06:33;99871.00;;;14.44;50.68
59337;BME280;45115;52.002;4.686;2023-04-12T13:08:59;99866.28;;;14.23;49.46
59337;BME280;45115;52.002;4.686;2023-04-12T13:11:26;99860.69;;;14.17;50.44
59337;BME280;45115;52.002;4.686;2023-04-12T13:13:54;99860.38;;;14.12;51.19